ADDS METAR Data INFO
IDs: Format: Raw Decoded Include TAF

Data at: 2130 UTC 25 Feb 2018

KUTS 252110Z AUTO 10006KT 3SM VCTS RA BR FEW006 BKN034 OVC080 11/11 A2996 RMK AO2 LTG DSNT ALQDS TSE08 P0007 T01110111
KUTS 252108Z AUTO 10006KT 2 1/2SM VCTS RA BR BKN034 BKN080 OVC100 11/11 A2995 RMK AO2 LTG DSNT ALQDS TSE08 P0007 T01110106
KUTS 252100Z AUTO 07009KT 1SM +TSRA BR BKN032 OVC039 11/11 A2995 RMK AO2 LTG DSNT ALQDS PRESFR P0005 T01110106
KUTS 252053Z AUTO 01005KT 3/4SM +TSRA BR FEW005 BKN025 OVC040 11/11 A2998 RMK AO2 LTG DSNT ALQDS TSE10B37 SLP150 P0080 60123 T01110106 58008
KUTS 252049Z AUTO 32005KT 1SM +TSRA BR FEW005 BKN025 OVC040 11/11 A3000 RMK AO2 LTG DSNT ALQDS TSE10B37 P0072
KUTS 252041Z AUTO VRB03KT 2SM +TSRA BR FEW006 BKN029 OVC040 11/11 A2999 RMK AO2 LTG DSNT ALQDS TSE10B37 PRESRR P0056 T01110106
KUTS 252035Z AUTO 08007KT 1 1/4SM VCTS +RA BR FEW004 BKN027 OVC042 11/11 A2996 RMK AO2 LTG DSNT ALQDS TSE10 P0051 T01110106
KUTS 252021Z AUTO 06007KT 1SM +RA BR FEW004 BKN025 OVC041 11/11 A2996 RMK AO2 LTG DSNT ALQDS TSE10 PRESFR P0038 T01110106
KUTS 252016Z AUTO 06007KT 3/4SM VCTS +RA BR FEW005 BKN021 OVC047 11/11 A2997 RMK AO2 LTG DSNT ALQDS TSE10 P0029 T01110106
KUTS 252009Z AUTO 05006KT 3/4SM +TSRA BR SCT005 BKN019 OVC030 11/11 A2998 RMK AO2 LTG DSNT ALQDS PRESFR P0021 T01110111
KUTS 252004Z AUTO VRB04KT 1 1/4SM TSRA BR SCT006 BKN012 OVC030 11/11 A2999 RMK AO2 LTG DSNT SW AND W P0009 T01110106
KUTS 251953Z AUTO 36005KT 1/2SM +TSRA FG BKN006 OVC027 11/11 A3000 RMK AO2 LTG DSNT N AND W TSB48 SLP158 P0041 T01110106
KUTS 251949Z AUTO VRB04KT 3/4SM +TSRA BR BKN006 BKN010 OVC027 12/11 A3000 RMK AO2 LTG DSNT SW-N TSB48 P0029
KUTS 251947Z AUTO 36005KT 1 1/2SM VCTS RA BR BKN006 OVC027 12/11 A3001 RMK AO2 LTG DSNT SW-N PRESRR P0019
KUTS 251941Z AUTO 01004KT 4SM VCTS -RA BR BKN006 OVC027 12/11 A2999 RMK AO2 LTG DSNT SW-N P0003 T01170106
KUTS 251919Z AUTO 08010KT 3SM RA BR FEW007 BKN028 OVC036 12/11 A2998 RMK AO2 LTG DSNT ALQDS P0002 T01170106
KUTS 251902Z AUTO 06009G17KT 9SM -RA SCT012 OVC030 12/10 A2999 RMK AO2 LTG DSNT E P0000 T01220100
KUTS 251853Z AUTO 07010KT 10SM -RA BKN014 OVC030 12/10 A3001 RMK AO2 LTG DSNT E AND NW RAB00E22B38 SLP159 P0002 T01220100
KUTS 251842Z AUTO 07011G15KT 10SM -RA BKN014 OVC031 12/11 A3000 RMK AO2 LTG DSNT NW-E RAB00E22B38 PRESFR P0002 T01220106
KUTS 251814Z AUTO 07010G20KT 9SM -RA BKN017 OVC033 13/11 A3003 RMK AO2 LTG DSNT S RAB00 P0002 T01280106
KUTS 251802Z AUTO 06011G16KT 7SM VCTS -RA BKN017 OVC055 12/10 A3002 RMK AO2 RAB00 P0001 T01220100
KUTS 251753Z AUTO 06010G15KT 10SM VCTS SCT018 BKN055 OVC065 13/11 A3004 RMK AO2 LTG DSNT W RAE1655 SLP171 P0000 60034 T01280106 10144 20111 50012
KUTS 251653Z AUTO 36008KT 10SM -RA FEW031 OVC060 12/11 A3008 RMK AO2 LTG DSNT NE-SE SLP184 P0010 T01170106
KUTS 251553Z AUTO 09013G18KT 6SM RA BR FEW075 OVC100 12/11 A3001 RMK AO2 LTG DSNT ALQDS TSE1455 SLP158 P0017 T01170106
KUTS 251542Z AUTO 09008KT 3SM VCTS +RA BR FEW045 BKN080 OVC110 12/10 A3002 RMK AO2 LTG DSNT ALQDS TSE1455 P0015 T01220100
KUTS 251532Z AUTO 05008KT 2 1/2SM VCTS RA BR SCT045 BKN075 OVC090 12/11 A3003 RMK AO2 LTG DSNT ALQDS TSE1455 P0012 T01220106
KUTS 251501Z AUTO 11011KT 4SM VCTS RA BR FEW039 BKN070 OVC100 13/11 A3003 RMK AO2 LTG DSNT ALQDS TSE1455 P0002 T01280106
KUTS 251453Z AUTO 10011KT 5SM TSRA BR SCT039 BKN070 OVC100 13/11 A3003 RMK AO2 LTG DSNT S-W RAB11 TSB25 SLP165 P0007 60007 T01280111 53006
KUTS 251425Z AUTO 07010KT 7SM -TSRA BKN042 OVC100 13/11 A3001 RMK AO2 LTG DSNT S AND SW RAB11 TSB25 P0002 T01330106
KUTS 251353Z AUTO 07007G17KT 10SM SCT041 BKN049 OVC080 14/10 A3000 RMK AO2 SLP158 T01390100
KUTS 251253Z AUTO 07010KT 10SM SCT050 SCT070 SCT100 14/11 A3000 RMK AO2 SLP158 T01440106
KUTS 251153Z AUTO 07007KT 10SM BKN050 OVC075 14/11 A3001 RMK AO2 SLP158 70010 T01440106 10156 20144 53015
KUTS 251053Z AUTO 07008KT 10SM OVC038 15/09 A2998 RMK AO2 SLP149 T01500094
KUTS 250953Z AUTO 07008KT 10SM OVC035 15/10 A2999 RMK AO2 SLP151 T01500100
KUTS 250853Z AUTO 07006KT 10SM BKN034 15/11 A2996 RMK AO2 SLP143 T01500111 57012
KUTS 250753Z AUTO 00000KT 10SM BKN032 16/11 A2998 RMK AO2 SLP147 T01560111
KUTS 250653Z AUTO 00000KT 10SM OVC030 16/12 A2999 RMK AO2 LTG DSNT S SLP151 T01560122
KUTS 250631Z AUTO 00000KT 10SM BKN030 16/12 A2999 RMK AO2 T01560117
KUTS 250553Z AUTO 00000KT 10SM OVC024 15/13 A3000 RMK AO2 RAE47 SLP155 P0002 60007 T01500133 10228 20144 402440144 51023
KUTS 250453Z AUTO 33003KT 10SM -RA BKN022 BKN039 OVC090 14/14 A2999 RMK AO2 RAB04 SLP153 P0005 T01440139
KUTS 250353Z AUTO 34007KT 10SM OVC015 18/14 A2996 RMK AO2 SLP142 T01830144
KUTS 250332Z AUTO 34007KT 10SM BKN013 BKN044 OVC090 19/16 A2995 RMK AO2 T01890156
KUTS 250253Z AUTO 24003KT 10SM FEW022 SCT029 22/19 A2993 RMK AO2 SLP131 T02220194 52020
KUTS 250153Z AUTO 17004KT 10SM FEW021 SCT044 SCT120 22/19 A2991 RMK AO2 SLP124 T02220189
KUTS 250053Z AUTO 20004KT 10SM SCT024 OVC038 22/19 A2989 RMK AO2 SLP117 T02220189
KUTS 250028Z AUTO 24003KT 10SM BKN026 OVC037 23/18 A2988 RMK AO2 T02280183
KUTS 242353Z AUTO 20004KT 10SM OVC037 23/18 A2987 RMK AO2 SLP111 60003 T02280183 10244 20228 53007
KUTS 242253Z AUTO 18007KT 10SM FEW110 23/18 A2983 RMK AO2 SLP098 T02330183
KUTS 242153Z AUTO 19011KT 10SM BKN055 BKN070 24/18 A2984 RMK AO2 RAB19E37 SLP101 P0000 T02390183
KUTS 242053Z AUTO 18010KT 10SM OVC065 23/18 A2985 RMK AO2 RAB1957E29 SLP103 P0000 60003 T02330183 56024
KUTS 241953Z AUTO 19009KT 10SM FEW042 BKN055 OVC070 24/19 A2987 RMK AO2 RAB09E20 SLP109 P0000 T02390189
KUTS 241904Z AUTO 19007KT 10SM FEW050 BKN065 OVC110 24/19 A2989 RMK AO2 LTG DSNT E T02390194
KUTS 241853Z AUTO 18010KT 10SM VCTS FEW029 SCT060 OVC110 23/19 A2989 RMK AO2 LTG DSNT E-S RAB21E41 TSB17E36 SLP118 P0003 T02330194
KUTS 241842Z AUTO 18010KT 10SM VCTS FEW027 SCT033 BKN120 23/19 A2990 RMK AO2 LTG DSNT E-S RAB21E41 TSB17E36 P0003 T02330194
KUTS 241823Z AUTO 18012KT 5SM -TSRA SCT030 BKN042 OVC060 23/19 A2990 RMK AO2 LTG DSNT N AND NE AND SW RAB21 TSB17 P0003 T02330189
KUTS 241813Z AUTO 19011KT 10SM FEW028 SCT037 BKN047 24/19 A2991 RMK AO2 LTG DSNT N AND NE AND SW T02390189
KUTS 241753Z AUTO 18012G21KT 10SM VCTS FEW049 FEW060 24/19 A2992 RMK AO2 PK WND 18030/1656 LTG DSNT W AND NW SLP128 60000 T02390189 10244 20217 53004
KUTS 241653Z AUTO 17015G23KT 10SM FEW023 SCT070 BKN100 23/19 A2991 RMK AO2 PK WND 16026/1604 RAB35E48 SLP124 P0000 T02330189
KUTS 241553Z AUTO 16016G25KT 10SM SCT017 SCT043 BKN075 22/19 A2991 RMK AO2 SLP124 T02220189
KUTS 241551Z AUTO 16015G25KT 10SM SCT017 SCT043 BKN075 22/19 A2991 RMK AO2 PRESFR
KUTS 241539Z AUTO 17014G19KT 9SM SCT014 BKN019 BKN041 22/19 A2995 RMK AO2 T02220194
KUTS 241453Z AUTO 17011G19KT 9SM CLR 22/19 A2993 RMK AO2 PK WND 16028/1420 SLP132 T02220194 58008
KUTS 241353Z AUTO 16012G21KT 8SM CLR 22/19 A2993 RMK AO2 SLP131 T02170194
KUTS 241253Z AUTO 18010KT 8SM FEW014 FEW021 BKN048 22/20 A2996 RMK AO2 SLP140 T02170200
KUTS 241226Z AUTO 17006KT 8SM SCT010 SCT021 BKN044 22/20 A2996 RMK AO2 T02170200
KUTS 241219Z AUTO 17009KT 8SM SCT010 BKN022 OVC080 22/20 A2996 RMK AO2 T02170200
KUTS 241204Z AUTO 18009KT 8SM SCT010 SCT022 BKN042 22/20 A2996 RMK AO2 T02170200
KUTS 241153Z AUTO 18009KT 8SM BKN011 BKN020 OVC080 22/20 A2996 RMK AO2 RAE1057 SLP139 P0000 60001 70001 T02170200 10217 20211 55001
KUTS 241114Z AUTO 17007KT 8SM FEW008 BKN011 OVC019 22/20 A2994 RMK AO2 RAE1057 P0000 T02170200
KUTS 241053Z AUTO 16007KT 7SM -RA FEW013 BKN021 OVC050 22/20 A2994 RMK AO2 RAB33 SLP133 P0000 T02170200
KUTS 241050Z AUTO 16006KT 7SM -RA FEW013 BKN033 OVC050 22/20 A2994 RMK AO2 RAB33 P0000
KUTS 241038Z AUTO 16007KT 8SM -RA FEW008 BKN025 OVC075 22/20 A2994 RMK AO2 RAB33 P0000 T02170200
KUTS 241013Z AUTO 15005KT 8SM FEW026 SCT030 BKN075 21/20 A2994 RMK AO2 T02110200
KUTS 240953Z AUTO 17005KT 8SM SCT012 BKN029 OVC075 21/20 A2996 RMK AO2 RAE0854B15E29 SLP140 P0001 T02110200
KUTS 240939Z AUTO 16005KT 8SM BKN012 OVC023 21/20 A2996 RMK AO2 RAE0854B15E29 P0001 T02110200